Blossom Valley, California
Current Conditions -  °F | °C
As of 1:56 PM on Sunday 23 Nov 2014 (Local Time) from KNUQ Reporting Station
Clear Clear  
Wind Chill: 65°   Ceiling: Unl
Heat Index: 65°   Visibility: 10mi
Dew Point: 38°   Wind: 5mph
Humidity: 37%   Direction: 330°NNW
Pressure: 30.28"   Gusts: NA
Location:  37.3801°N, 122.086°W
Report Text: KNUQ 232156Z AUTO 33004KT 10SM CLR 18/03 A3028 RMK AO2 SLP257 T01830033 TSNO
Loading
Personal Weather Stations






























Interactive Weather Map New forecast layout! Learn more

10-Day Weather Forecast

Advertisements
Track Severe Weather on mobile